createdAt,value
2018-09-23T00:00:39.817Z,11.50
2018-09-23T00:03:08.894Z,11.50
2018-09-23T00:05:37.799Z,11.50
2018-09-23T00:08:06.893Z,11.40
2018-09-23T00:10:35.970Z,11.40
2018-09-23T00:13:05.107Z,11.40
2018-09-23T00:15:34.136Z,11.40
2018-09-23T00:18:02.925Z,11.40
2018-09-23T00:20:31.709Z,11.40
2018-09-23T00:23:00.799Z,11.40
2018-09-23T00:25:29.588Z,11.30
2018-09-23T00:27:57.981Z,11.30
2018-09-23T00:30:27.420Z,11.40
2018-09-23T00:32:56.186Z,11.40
2018-09-23T00:35:24.901Z,11.40
2018-09-23T00:37:54.153Z,11.40
2018-09-23T00:40:22.601Z,11.40
2018-09-23T00:42:51.610Z,11.40
2018-09-23T00:45:20.756Z,11.40
2018-09-23T00:47:49.846Z,11.50
2018-09-23T00:50:18.899Z,11.40
2018-09-23T00:52:48.012Z,11.40
2018-09-23T00:55:16.739Z,11.40
2018-09-23T00:57:46.114Z,11.40
2018-09-23T01:00:14.563Z,11.40
2018-09-23T01:02:43.667Z,11.40
2018-09-23T01:05:12.488Z,11.30
2018-09-23T01:07:41.587Z,11.30
2018-09-23T01:10:10.680Z,11.30
2018-09-23T01:12:39.505Z,11.30
2018-09-23T01:15:07.942Z,11.30
2018-09-23T01:17:36.670Z,11.30
2018-09-23T01:20:05.683Z,11.30
2018-09-23T01:22:34.957Z,11.30
2018-09-23T01:25:03.340Z,11.40
2018-09-23T01:27:32.380Z,11.30
2018-09-23T01:30:01.180Z,11.40
2018-09-23T01:32:29.990Z,11.30
2018-09-23T01:34:59.087Z,11.30
2018-09-23T01:37:27.874Z,11.40
2018-09-23T01:39:56.952Z,11.40
2018-09-23T01:42:25.628Z,11.40
2018-09-23T01:44:54.722Z,11.40
2018-09-23T01:47:23.810Z,11.30
2018-09-23T01:49:52.630Z,11.30
2018-09-23T01:52:21.454Z,11.30
2018-09-23T01:54:50.203Z,11.30
2018-09-23T01:57:18.929Z,11.20
2018-09-23T01:59:47.663Z,11.20
2018-09-23T02:02:16.416Z,11.20
2018-09-23T02:04:45.456Z,11.20
2018-09-23T02:07:14.562Z,11.10
2018-09-23T02:09:43.131Z,11.10
2018-09-23T02:12:12.153Z,11.00
2018-09-23T02:14:41.122Z,11.00
2018-09-23T02:17:09.869Z,11.00
2018-09-23T02:19:38.621Z,10.90
2018-09-23T02:22:07.179Z,10.90
2018-09-23T02:24:36.332Z,10.90
2018-09-23T02:27:05.442Z,10.90
2018-09-23T02:29:34.342Z,10.80
2018-09-23T02:32:03.435Z,10.80
2018-09-23T02:34:32.502Z,10.80
2018-09-23T02:37:01.268Z,10.80
2018-09-23T02:39:30.053Z,10.80
2018-09-23T02:41:58.815Z,10.80
2018-09-23T02:44:27.926Z,10.70
2018-09-23T02:46:57.023Z,10.70
2018-09-23T02:49:26.241Z,10.70
2018-09-23T02:51:55.277Z,10.60
2018-09-23T02:54:24.324Z,10.60
2018-09-23T02:56:53.093Z,10.60
2018-09-23T02:59:22.319Z,10.50
2018-09-23T03:01:51.432Z,10.50
2018-09-23T03:04:20.530Z,10.50
2018-09-23T03:06:49.276Z,10.50
2018-09-23T03:09:18.352Z,10.50
2018-09-23T03:11:47.063Z,10.50
2018-09-23T03:14:16.108Z,10.40
2018-09-23T03:16:45.123Z,10.40
2018-09-23T03:19:14.138Z,10.40
2018-09-23T03:21:42.918Z,10.40
2018-09-23T03:24:11.726Z,10.40
2018-09-23T03:26:40.442Z,10.30
2018-09-23T03:29:09.167Z,10.30
2018-09-23T03:31:37.870Z,10.30
2018-09-23T03:34:06.931Z,10.30
2018-09-23T03:36:35.963Z,10.30
2018-09-23T03:39:05.998Z,10.40
2018-09-23T03:41:35.129Z,10.40
2018-09-23T03:44:03.565Z,10.30
2018-09-23T03:46:32.601Z,10.30
2018-09-23T03:49:01.593Z,10.30
2018-09-23T03:51:30.324Z,10.20
2018-09-23T03:53:59.496Z,10.20
2018-09-23T03:56:28.901Z,10.20
2018-09-23T03:58:58.002Z,10.20
2018-09-23T04:01:27.043Z,10.10
2018-09-23T04:03:56.220Z,10.10
2018-09-23T04:06:25.263Z,10.10
2018-09-23T04:08:53.980Z,10.10
2018-09-23T04:11:23.075Z,10.10
2018-09-23T04:13:52.191Z,10.00
2018-09-23T04:16:21.272Z,10.00
2018-09-23T04:18:50.331Z,10.00
2018-09-23T04:21:19.043Z,10.00
2018-09-23T04:23:48.123Z,10.00
2018-09-23T04:26:17.166Z,10.00
2018-09-23T04:28:46.251Z,10.00
2018-09-23T04:31:15.304Z,10.10
2018-09-23T04:33:44.075Z,10.10
2018-09-23T04:36:12.826Z,10.20
2018-09-23T04:38:41.597Z,10.20
2018-09-23T04:41:10.695Z,10.20
2018-09-23T04:43:39.732Z,10.20
2018-09-23T04:46:08.884Z,10.30
2018-09-23T04:48:37.895Z,10.30
2018-09-23T04:51:06.974Z,10.40
2018-09-23T04:53:36.064Z,10.30
2018-09-23T04:56:08.435Z,10.30
2018-09-23T04:58:37.473Z,10.30
2018-09-23T05:01:05.834Z,10.40
2018-09-23T05:03:34.912Z,10.40
2018-09-23T05:06:03.950Z,10.40
2018-09-23T05:08:33.007Z,10.40
2018-09-23T05:11:01.735Z,10.30
2018-09-23T05:13:30.467Z,10.30
2018-09-23T05:15:59.519Z,10.50
2018-09-23T05:18:28.671Z,10.50
2018-09-23T05:20:57.100Z,10.50
2018-09-23T05:23:25.921Z,10.50
2018-09-23T05:25:54.631Z,10.60
2018-09-23T05:28:23.051Z,10.60
2018-09-23T05:30:52.171Z,10.60
2018-09-23T05:33:21.327Z,10.60
2018-09-23T05:35:50.045Z,10.60
2018-09-23T05:38:18.771Z,10.60
2018-09-23T05:40:47.474Z,10.70
2018-09-23T05:43:17.293Z,10.70
2018-09-23T05:45:45.981Z,10.70
2018-09-23T05:48:15.054Z,10.60
2018-09-23T05:50:43.927Z,10.70
2018-09-23T05:53:12.751Z,10.80
2018-09-23T05:55:42.284Z,10.80
2018-09-23T05:58:11.345Z,10.90
2018-09-23T06:00:55.772Z,10.90
2018-09-23T06:03:24.846Z,11.00
2018-09-23T06:05:53.580Z,11.00
2018-09-23T06:08:22.632Z,11.10
2018-09-23T06:10:51.744Z,11.10
2018-09-23T06:13:20.517Z,11.20
2018-09-23T06:15:49.900Z,11.20
2018-09-23T06:18:19.006Z,11.30
2018-09-23T06:20:48.208Z,11.40
2018-09-23T06:23:17.272Z,11.40
2018-09-23T06:25:46.015Z,11.50
2018-09-23T06:28:15.041Z,11.50
2018-09-23T06:30:44.208Z,11.50
2018-09-23T06:33:13.311Z,11.50
2018-09-23T06:35:41.679Z,11.50
2018-09-23T06:38:10.163Z,11.50
2018-09-23T06:40:38.945Z,11.70
2018-09-23T06:43:07.351Z,11.90
2018-09-23T06:45:35.795Z,12.00
2018-09-23T06:48:04.313Z,12.00
2018-09-23T06:50:33.710Z,12.00
2018-09-23T06:53:02.435Z,12.00
2018-09-23T06:55:31.147Z,11.90
2018-09-23T06:58:00.225Z,11.90
2018-09-23T07:00:28.905Z,12.00
2018-09-23T07:02:58.035Z,12.10
2018-09-23T07:05:27.054Z,12.20
2018-09-23T07:07:56.224Z,12.40
2018-09-23T07:10:25.308Z,12.50
2018-09-23T07:12:54.639Z,12.70
2018-09-23T07:15:23.736Z,12.90
2018-09-23T07:17:52.573Z,13.40
2018-09-23T07:20:21.635Z,13.50
2018-09-23T07:22:50.093Z,13.60
2018-09-23T07:25:19.254Z,13.60
2018-09-23T07:27:48.028Z,13.70
2018-09-23T07:30:16.441Z,13.70
2018-09-23T07:32:45.543Z,14.00
2018-09-23T07:35:14.338Z,14.00
2018-09-23T07:37:43.428Z,14.00
2018-09-23T07:40:12.451Z,13.90
2018-09-23T07:42:42.279Z,13.80
2018-09-23T07:45:11.052Z,13.60
2018-09-23T07:47:40.143Z,13.70
2018-09-23T07:50:09.450Z,13.70
2018-09-23T07:52:38.155Z,13.90
2018-09-23T07:55:07.896Z,14.00
2018-09-23T07:57:37.131Z,14.00
2018-09-23T08:00:06.199Z,14.00
2018-09-23T08:02:35.628Z,14.10
2018-09-23T08:05:04.697Z,14.20
2018-09-23T08:07:33.661Z,14.30
2018-09-23T08:10:02.446Z,14.30
2018-09-23T08:12:31.310Z,14.10
2018-09-23T08:15:01.164Z,14.00
2018-09-23T08:17:30.383Z,13.90
2018-09-23T08:19:59.247Z,13.80
2018-09-23T08:22:27.869Z,13.90
2018-09-23T08:24:57.129Z,13.80
2018-09-23T08:27:25.920Z,13.90
2018-09-23T08:29:55.452Z,13.80
2018-09-23T08:32:24.746Z,14.10
2018-09-23T08:34:53.973Z,14.30
2018-09-23T08:37:22.999Z,14.30
2018-09-23T08:39:52.323Z,14.20
2018-09-23T08:42:21.024Z,14.20
2018-09-23T08:44:50.244Z,14.30
2018-09-23T08:47:19.347Z,14.20
2018-09-23T08:49:48.525Z,14.20
2018-09-23T08:52:17.357Z,14.00
2018-09-23T08:54:46.799Z,13.80
2018-09-23T08:57:16.516Z,14.00
2018-09-23T08:59:45.727Z,14.10
2018-09-23T09:02:14.876Z,14.30
2018-09-23T09:04:44.234Z,14.70
2018-09-23T09:07:13.018Z,15.10
2018-09-23T09:09:42.182Z,15.30
2018-09-23T09:12:10.897Z,15.40
2018-09-23T09:14:39.944Z,15.30
2018-09-23T09:17:09.539Z,15.20
2018-09-23T09:19:38.721Z,15.20
2018-09-23T09:22:07.793Z,15.10
2018-09-23T09:24:36.534Z,15.10
2018-09-23T09:27:05.174Z,15.10
2018-09-23T09:29:34.576Z,15.00
2018-09-23T09:32:03.938Z,15.00
2018-09-23T09:34:32.387Z,15.20
2018-09-23T09:37:00.771Z,15.40
2018-09-23T09:39:29.823Z,15.50
2018-09-23T09:41:58.905Z,15.60
2018-09-23T09:44:27.673Z,15.40
2018-09-23T09:46:56.197Z,15.30
2018-09-23T09:49:24.723Z,15.40
2018-09-23T09:51:53.264Z,15.40
2018-09-23T09:54:22.371Z,15.60
2018-09-23T09:56:51.211Z,15.80
2018-09-23T09:59:20.763Z,15.80
2018-09-23T10:01:49.261Z,15.70
2018-09-23T10:04:18.720Z,15.80
2018-09-23T10:06:48.185Z,15.80
2018-09-23T10:09:16.979Z,15.60
2018-09-23T10:11:46.372Z,15.50
2018-09-23T10:14:15.152Z,15.30
2018-09-23T10:16:43.965Z,15.20
2018-09-23T10:19:13.036Z,15.40
2018-09-23T10:21:42.230Z,15.60
2018-09-23T10:24:11.786Z,15.60
2018-09-23T10:26:40.748Z,15.70
2018-09-23T10:29:09.965Z,15.70
2018-09-23T10:31:39.354Z,15.60
2018-09-23T10:34:08.206Z,15.40
2018-09-23T10:36:38.201Z,15.40
2018-09-23T10:39:08.171Z,15.50
2018-09-23T10:41:36.744Z,15.50
2018-09-23T10:44:06.179Z,15.40
2018-09-23T10:46:34.771Z,15.30
2018-09-23T10:49:03.860Z,15.30
2018-09-23T10:51:32.466Z,15.40
2018-09-23T10:54:01.277Z,15.30
2018-09-23T10:56:29.797Z,15.40
2018-09-23T10:58:58.383Z,15.40
2018-09-23T11:01:26.928Z,15.50
2018-09-23T11:03:56.176Z,15.60
2018-09-23T11:06:25.113Z,15.50
2018-09-23T11:08:54.016Z,15.30
2018-09-23T11:11:22.761Z,15.30
2018-09-23T11:13:51.490Z,15.10
2018-09-23T11:16:19.724Z,14.90
2018-09-23T11:18:48.516Z,14.80
2018-09-23T11:21:17.585Z,14.80
2018-09-23T11:23:46.347Z,14.80
2018-09-23T11:26:15.515Z,15.00
2018-09-23T11:28:43.620Z,14.80
2018-09-23T11:31:13.161Z,14.80
2018-09-23T11:33:41.930Z,14.80
2018-09-23T11:36:10.662Z,14.80
2018-09-23T11:38:39.700Z,14.80
2018-09-23T11:41:08.155Z,14.70
2018-09-23T11:43:36.698Z,14.80
2018-09-23T11:46:05.098Z,14.80
2018-09-23T11:48:33.920Z,14.80
2018-09-23T11:51:02.653Z,14.50
2018-09-23T11:53:31.437Z,14.20
2018-09-23T11:56:00.186Z,14.00
2018-09-23T11:58:29.272Z,13.80
2018-09-23T12:00:58.067Z,13.60
2018-09-23T12:03:27.243Z,13.50
2018-09-23T12:05:56.050Z,13.40
2018-09-23T12:08:25.149Z,13.40
2018-09-23T12:10:54.570Z,13.40
2018-09-23T12:13:23.527Z,13.40
2018-09-23T12:15:52.593Z,13.50
2018-09-23T12:18:21.681Z,13.50
2018-09-23T12:20:50.733Z,13.50
2018-09-23T12:23:20.682Z,13.50
2018-09-23T12:25:49.534Z,13.50
2018-09-23T12:28:18.317Z,13.60
2018-09-23T12:30:47.302Z,13.50
2018-09-23T12:33:16.062Z,13.50
2018-09-23T12:35:44.795Z,13.50
2018-09-23T12:38:13.462Z,13.50
2018-09-23T12:40:42.556Z,13.50
2018-09-23T12:43:11.947Z,13.40
2018-09-23T12:45:41.110Z,13.30
2018-09-23T12:48:09.849Z,13.30
2018-09-23T12:50:38.767Z,13.30
2018-09-23T12:53:07.838Z,13.30
2018-09-23T12:55:36.502Z,13.20
2018-09-23T12:58:04.927Z,13.10
2018-09-23T13:00:33.955Z,13.10
2018-09-23T13:03:03.089Z,13.00
2018-09-23T13:05:32.192Z,13.00
2018-09-23T13:08:01.811Z,12.90
2018-09-23T13:10:31.444Z,12.90
2018-09-23T13:13:00.709Z,12.90
2018-09-23T13:15:29.461Z,12.80
2018-09-23T13:17:58.102Z,12.70
2018-09-23T13:20:27.183Z,12.70
2018-09-23T13:22:56.690Z,12.60
2018-09-23T13:25:25.950Z,12.50
2018-09-23T13:27:55.003Z,12.50
2018-09-23T13:30:24.038Z,12.40
2018-09-23T13:32:54.429Z,12.40
2018-09-23T13:35:23.559Z,12.40
2018-09-23T13:37:53.008Z,12.40
2018-09-23T13:40:21.765Z,12.40
2018-09-23T13:42:50.417Z,12.40
2018-09-23T13:45:19.510Z,12.40
2018-09-23T13:47:48.214Z,12.40
2018-09-23T13:50:17.143Z,12.40
2018-09-23T13:52:52.310Z,12.40
2018-09-23T13:55:20.712Z,12.40
2018-09-23T13:57:49.779Z,12.40
2018-09-23T14:00:18.629Z,12.40
2018-09-23T14:02:47.742Z,12.30
2018-09-23T14:05:16.775Z,12.30
2018-09-23T14:07:45.452Z,12.30
2018-09-23T14:10:14.271Z,12.30
2018-09-23T14:12:43.370Z,12.20
2018-09-23T14:15:12.122Z,12.20
2018-09-23T14:17:41.602Z,12.10
2018-09-23T14:20:10.661Z,12.10
2018-09-23T14:22:39.509Z,12.00
2018-09-23T14:25:08.640Z,12.00
2018-09-23T14:27:37.160Z,12.00
2018-09-23T14:30:06.102Z,12.00
2018-09-23T14:32:35.147Z,11.90
2018-09-23T14:35:04.517Z,12.00
2018-09-23T14:37:33.584Z,12.00
2018-09-23T14:40:02.751Z,12.00
2018-09-23T14:42:32.037Z,12.00
2018-09-23T14:45:01.064Z,12.00
2018-09-23T14:47:29.528Z,11.90
2018-09-23T14:49:58.368Z,11.90
2018-09-23T14:52:27.230Z,11.90
2018-09-23T14:54:56.131Z,11.90
2018-09-23T14:57:25.076Z,11.90
2018-09-23T14:59:54.368Z,11.90
2018-09-23T15:02:22.885Z,11.90
2018-09-23T15:04:51.788Z,11.90
2018-09-23T15:07:20.799Z,12.00
2018-09-23T15:09:49.508Z,11.90
2018-09-23T15:12:18.398Z,11.90
2018-09-23T15:14:47.498Z,11.80
2018-09-23T15:17:15.973Z,11.90
2018-09-23T15:19:45.278Z,11.80
2018-09-23T15:22:14.430Z,11.70
2018-09-23T15:24:43.546Z,11.70
2018-09-23T15:27:12.672Z,11.60
2018-09-23T15:32:14.898Z,11.60
2018-09-23T15:34:43.966Z,11.60
2018-09-23T15:37:13.077Z,11.70
2018-09-23T15:39:41.464Z,11.60
2018-09-23T15:42:10.814Z,11.60
2018-09-23T15:44:41.171Z,11.50
2018-09-23T15:47:10.162Z,11.40
2018-09-23T15:49:39.296Z,11.40
2018-09-23T15:52:08.229Z,11.40
2018-09-23T15:54:37.544Z,11.40
2018-09-23T15:57:06.025Z,11.40
2018-09-23T15:59:34.807Z,11.40
2018-09-23T16:02:03.582Z,11.40
2018-09-23T16:04:33.044Z,11.40
2018-09-23T16:07:02.139Z,11.40
2018-09-23T16:09:31.235Z,11.30
2018-09-23T16:12:00.062Z,11.20
2018-09-23T16:14:29.188Z,11.20
2018-09-23T16:16:58.251Z,11.40
2018-09-23T16:19:27.326Z,11.40
2018-09-23T16:21:56.729Z,11.30
2018-09-23T16:24:25.520Z,11.20
2018-09-23T16:26:54.712Z,11.20
2018-09-23T16:29:23.947Z,11.10
2018-09-23T16:31:53.204Z,11.00
2018-09-23T16:34:22.564Z,11.10
2018-09-23T16:36:51.840Z,11.00
2018-09-23T16:39:20.863Z,10.90
2018-09-23T16:41:50.316Z,11.00
2018-09-23T16:44:19.418Z,10.90
2018-09-23T16:46:48.471Z,10.90
2018-09-23T16:49:17.628Z,10.90
2018-09-23T16:51:47.035Z,10.80
2018-09-23T16:54:16.188Z,10.80
2018-09-23T16:56:45.395Z,10.70
2018-09-23T16:59:14.123Z,10.70
2018-09-23T17:01:43.847Z,10.60
2018-09-23T17:04:13.424Z,10.60
2018-09-23T17:06:42.238Z,10.50
2018-09-23T17:09:11.149Z,10.60
2018-09-23T17:11:40.482Z,10.60
2018-09-23T17:14:09.996Z,10.60
2018-09-23T17:16:39.504Z,10.60
2018-09-23T17:19:09.490Z,10.60
2018-09-23T17:21:38.710Z,10.60
2018-09-23T17:24:07.422Z,10.60
2018-09-23T17:26:36.516Z,10.60
2018-09-23T17:29:05.237Z,10.60
2018-09-23T17:31:33.643Z,10.60
2018-09-23T17:34:02.372Z,10.70
2018-09-23T17:36:31.583Z,10.70
2018-09-23T17:39:00.386Z,10.80
2018-09-23T17:41:29.355Z,10.70
2018-09-23T17:43:58.943Z,10.70
2018-09-23T17:46:28.074Z,10.60
2018-09-23T17:48:57.414Z,10.70
2018-09-23T17:51:26.063Z,10.70
2018-09-23T17:53:54.575Z,10.70
2018-09-23T17:56:23.782Z,10.70
2018-09-23T17:58:52.762Z,10.60
2018-09-23T18:01:21.918Z,10.60
2018-09-23T18:03:51.020Z,10.60
2018-09-23T18:06:19.710Z,10.60
2018-09-23T18:08:48.440Z,10.50
2018-09-23T18:11:17.327Z,10.60
2018-09-23T18:13:46.409Z,10.50
2018-09-23T18:16:15.427Z,10.40
2018-09-23T18:18:43.855Z,10.40
2018-09-23T18:21:12.967Z,10.40
2018-09-23T18:23:42.058Z,10.40
2018-09-23T18:26:11.192Z,10.50
2018-09-23T18:28:40.172Z,10.40
2018-09-23T18:31:09.215Z,10.40
2018-09-23T18:33:38.208Z,10.30
2018-09-23T18:36:07.286Z,10.40
2018-09-23T18:38:36.451Z,10.40
2018-09-23T18:41:05.815Z,10.40
2018-09-23T18:43:35.372Z,10.20
2018-09-23T18:46:04.050Z,10.20
2018-09-23T18:48:32.842Z,10.10
2018-09-23T18:51:03.052Z,10.20
2018-09-23T18:53:32.047Z,10.10
2018-09-23T18:56:00.645Z,10.10
2018-09-23T18:58:29.716Z,9.90
2018-09-23T19:00:59.336Z,9.90
2018-09-23T19:03:28.861Z,9.90
2018-09-23T19:05:57.768Z,9.80
2018-09-23T19:08:26.798Z,9.90
2018-09-23T19:10:55.365Z,9.80
2018-09-23T19:13:29.867Z,9.90
2018-09-23T19:16:04.257Z,9.90
2018-09-23T19:18:33.008Z,9.90
2018-09-23T19:21:02.344Z,9.90
2018-09-23T19:23:32.075Z,9.90
2018-09-23T19:26:01.401Z,9.90
2018-09-23T19:28:30.139Z,9.90
2018-09-23T19:30:58.972Z,9.90
2018-09-23T19:33:27.745Z,9.90
2018-09-23T19:35:56.835Z,9.90
2018-09-23T19:38:25.866Z,9.90
2018-09-23T19:40:55.430Z,10.00
2018-09-23T19:43:24.105Z,9.90
2018-09-23T19:45:53.208Z,9.90
2018-09-23T19:48:22.325Z,9.80
2018-09-23T19:50:51.421Z,9.90
2018-09-23T19:53:20.490Z,9.90
2018-09-23T19:55:49.582Z,9.90
2018-09-23T19:58:18.607Z,9.90
2018-09-23T20:00:47.358Z,9.90
2018-09-23T20:03:16.276Z,9.90
2018-09-23T20:05:45.043Z,9.90
2018-09-23T20:08:14.114Z,9.90
2018-09-23T20:10:43.188Z,9.90
2018-09-23T20:13:12.297Z,9.90
2018-09-23T20:15:41.410Z,9.90
2018-09-23T20:18:10.949Z,9.90
2018-09-23T20:20:40.013Z,9.90
2018-09-23T20:23:09.137Z,9.90
2018-09-23T20:25:37.874Z,9.90
2018-09-23T20:28:07.100Z,9.90
2018-09-23T20:30:35.808Z,9.80
2018-09-23T20:33:04.839Z,9.80
2018-09-23T20:35:34.081Z,9.90
2018-09-23T20:38:03.155Z,9.90
2018-09-23T20:40:32.351Z,9.90
2018-09-23T20:43:01.545Z,10.00
2018-09-23T20:45:30.559Z,10.00
2018-09-23T20:47:59.600Z,10.00
2018-09-23T20:50:28.646Z,9.90
2018-09-23T20:52:57.692Z,9.90
2018-09-23T20:55:26.397Z,9.90
2018-09-23T20:57:55.532Z,9.80
2018-09-23T21:00:24.342Z,9.80
2018-09-23T21:02:53.050Z,9.90
2018-09-23T21:05:22.149Z,9.90
2018-09-23T21:07:50.885Z,9.90
2018-09-23T21:10:20.015Z,9.80
2018-09-23T21:12:49.200Z,9.80
2018-09-23T21:15:18.463Z,9.70
2018-09-23T21:17:47.678Z,9.70
2018-09-23T21:20:16.735Z,9.60
2018-09-23T21:22:45.807Z,9.60
2018-09-23T21:25:14.851Z,9.50
2018-09-23T21:27:44.403Z,9.50
2018-09-23T21:30:13.460Z,9.50
2018-09-23T21:32:42.477Z,9.40
2018-09-23T21:35:11.560Z,9.40
2018-09-23T21:37:40.652Z,9.50
2018-09-23T21:40:09.415Z,9.50
2018-09-23T21:42:38.439Z,9.40
2018-09-23T21:45:06.838Z,9.40
2018-09-23T21:47:35.936Z,9.40
2018-09-23T21:50:04.464Z,9.30
2018-09-23T21:52:33.549Z,9.40
2018-09-23T21:55:02.312Z,9.40
2018-09-23T21:57:30.997Z,9.30
2018-09-23T21:59:59.992Z,9.40
2018-09-23T22:02:29.252Z,9.40
2018-09-23T22:04:58.235Z,9.40
2018-09-23T22:07:26.929Z,9.40
2018-09-23T22:09:56.077Z,9.40
2018-09-23T22:12:25.151Z,9.40
2018-09-23T22:14:54.139Z,9.40
2018-09-23T22:17:23.198Z,9.50
2018-09-23T22:19:52.311Z,9.50
2018-09-23T22:22:21.379Z,9.50
2018-09-23T22:24:56.607Z,9.50
2018-09-23T22:27:25.635Z,9.50
2018-09-23T22:29:54.353Z,9.60
2018-09-23T22:32:23.963Z,9.50
2018-09-23T22:34:52.974Z,9.50
2018-09-23T22:37:22.201Z,9.50
2018-09-23T22:39:50.947Z,9.50
2018-09-23T22:42:19.628Z,9.50
2018-09-23T22:44:48.674Z,9.50
2018-09-23T22:47:17.691Z,9.50
2018-09-23T22:49:46.428Z,9.50
2018-09-23T22:52:15.873Z,9.50
2018-09-23T22:54:44.932Z,9.50
2018-09-23T22:57:13.964Z,9.50
2018-09-23T22:59:43.082Z,9.50
2018-09-23T23:02:11.884Z,9.50
2018-09-23T23:04:41.782Z,9.50
2018-09-23T23:07:10.840Z,9.50
2018-09-23T23:09:39.644Z,9.50
2018-09-23T23:12:08.421Z,9.40
2018-09-23T23:14:36.765Z,9.40
2018-09-23T23:17:05.258Z,9.40
2018-09-23T23:19:34.327Z,9.40
2018-09-23T23:22:03.365Z,9.40
2018-09-23T23:24:32.105Z,9.30
2018-09-23T23:27:01.250Z,9.30
2018-09-23T23:29:29.786Z,9.30
2018-09-23T23:31:58.490Z,9.30
2018-09-23T23:34:27.522Z,9.20
2018-09-23T23:36:56.598Z,9.30
2018-09-23T23:39:25.676Z,9.20
2018-09-23T23:41:54.438Z,9.20
2018-09-23T23:44:23.510Z,9.20
2018-09-23T23:46:52.221Z,9.20
2018-09-23T23:49:21.234Z,9.20
2018-09-23T23:51:49.946Z,9.20
2018-09-23T23:54:18.662Z,9.20
2018-09-23T23:56:47.393Z,9.20
2018-09-23T23:59:16.385Z,9.30
